Time;durP1;ratioP1;P1;durP2;ratioP2;P2;SDS_P1;SDS_P2;PMS_P1;PMS_P2;Temp;Humidity;BMP_temperature;BMP_pressure;BME280_temperature;BME280_humidity;BME280_pressure;Samples;Min_cycle;Max_cycle;Signal;HPM_P1;HPM_P2
2021/12/16 00:02:14;;;;;;;3.08;1.60;;;4.60;99.90;;;;;;4880146;29;20697;-81
2021/12/16 00:05:14;;;;;;;2.45;1.50;;;3.60;99.90;;;;;;4876361;29;20049;-82
2021/12/16 00:07:52;;;;;;;1.02;0.70;;;3.60;99.90;;;;;;4859623;29;20129;-81
2021/12/16 00:10:25;;;;;;;1.95;0.47;;;3.80;99.90;;;;;;4876925;29;20056;-81
2021/12/16 00:32:28;;;;;;;1.58;1.17;;;3.50;99.90;;;;;;4879450;29;20151;-80
2021/12/16 00:34:58;;;;;;;2.80;1.00;;;3.80;99.90;;;;;;4863046;29;20148;-79
2021/12/16 00:37:27;;;;;;;3.58;0.90;;;3.70;99.90;;;;;;4880373;29;20068;-80
2021/12/16 00:39:55;;;;;;;4.72;1.00;;;3.60;99.90;;;;;;4878276;29;20057;-80
2021/12/16 00:42:33;;;;;;;2.47;0.98;;;3.70;99.90;;;;;;4880084;29;20112;-81
2021/12/16 00:45:19;;;;;;;1.30;0.80;;;3.60;99.90;;;;;;4879716;29;20069;-81
2021/12/16 00:47:56;;;;;;;1.02;0.73;;;3.60;99.90;;;;;;4879663;29;20152;-80
2021/12/16 00:56:06;;;;;;;3.80;0.90;;;3.90;99.90;;;;;;4878895;29;20071;-80
2021/12/16 00:58:50;;;;;;;0.75;0.55;;;3.70;99.90;;;;;;4873185;29;20060;-80
2021/12/16 01:01:33;;;;;;;1.77;0.60;;;3.80;99.90;;;;;;4878531;29;20113;-80
2021/12/16 01:04:39;;;;;;;5.68;0.90;;;3.60;99.90;;;;;;4877771;29;20053;-80
2021/12/16 01:35:47;;;;;;;1.98;0.77;;;3.40;99.90;;;;;;5079101;28;20534;-81
2021/12/16 01:47:13;;;;;;;5.05;1.00;;;3.30;99.90;;;;;;5074080;28;20044;-80
2021/12/16 01:49:55;;;;;;;4.30;1.15;;;3.40;99.90;;;;;;5089112;28;20552;-80
2021/12/16 01:55:29;;;;;;;3.25;0.93;;;3.30;99.90;;;;;;5079481;28;20048;-81
2021/12/16 01:58:09;;;;;;;1.88;1.20;;;3.40;99.90;;;;;;5088991;28;20125;-81
2021/12/16 02:28:16;;;;;;;3.63;1.60;;;3.00;99.90;;;;;;5067075;28;20040;-81
2021/12/16 02:31:22;;;;;;;4.20;1.70;;;3.00;99.90;;;;;;5101485;28;20105;-81
2021/12/16 02:34:17;;;;;;;3.47;1.10;;;3.00;99.90;;;;;;5075235;28;20056;-81
2021/12/16 02:36:45;;;;;;;5.20;1.88;;;3.10;99.90;;;;;;5084063;28;20048;-81
2021/12/16 02:39:21;;;;;;;2.70;1.13;;;3.10;99.90;;;;;;5098034;28;20053;-81
2021/12/16 02:41:57;;;;;;;9.95;1.65;;;3.10;99.90;;;;;;5073711;28;20106;-79
2021/12/16 02:44:34;;;;;;;2.40;1.63;;;3.20;99.90;;;;;;5082585;28;20084;-80
2021/12/16 02:49:52;;;;;;;2.53;1.30;;;3.20;99.90;;;;;;5073185;28;20059;-79
2021/12/16 02:52:24;;;;;;;3.58;1.33;;;3.30;99.90;;;;;;5070865;28;20048;-80
2021/12/16 02:54:52;;;;;;;3.90;2.28;;;3.30;99.90;;;;;;5084370;28;20051;-81
2021/12/16 02:57:24;;;;;;;3.85;1.98;;;3.30;99.90;;;;;;5066263;28;20061;-80
2021/12/16 02:59:53;;;;;;;2.90;1.80;;;3.30;99.90;;;;;;5078872;28;20103;-79
2021/12/16 03:02:25;;;;;;;8.30;1.98;;;3.30;99.90;;;;;;5071261;28;20046;-78
2021/12/16 03:04:54;;;;;;;3.85;1.65;;;3.40;99.90;;;;;;5057594;28;20045;-80
2021/12/16 03:07:23;;;;;;;2.53;1.75;;;3.40;99.90;;;;;;5074936;28;20121;-79
2021/12/16 03:15:53;;;;;;;4.05;1.30;;;3.40;99.90;;;;;;5067241;28;20044;-80
2021/12/16 03:18:31;;;;;;;4.43;1.48;;;3.30;99.90;;;;;;5060336;28;20625;-80
2021/12/16 03:21:05;;;;;;;2.88;1.73;;;3.40;99.90;;;;;;5086893;28;20300;-80
2021/12/16 03:23:48;;;;;;;8.57;2.00;;;3.40;99.90;;;;;;5074542;28;20091;-79
2021/12/16 03:26:58;;;;;;;;;;;3.40;99.90;;;;;;5065669;28;20053;-79
2021/12/16 03:29:42;;;;;;;3.40;2.40;;;3.30;99.90;;;;;;5090659;28;19923;-79
2021/12/16 03:35:13;;;;;;;4.55;2.55;;;3.30;99.90;;;;;;5061328;28;20060;-79
2021/12/16 03:37:41;;;;;;;5.07;2.60;;;3.30;99.90;;;;;;5054923;28;20152;-79
2021/12/16 03:40:14;;;;;;;2.38;2.15;;;3.30;99.90;;;;;;5052675;28;20132;-79
2021/12/16 03:42:48;;;;;;;4.25;2.40;;;3.30;99.90;;;;;;5065558;28;20099;-80
2021/12/16 03:48:25;;;;;;;4.40;2.20;;;3.40;99.90;;;;;;5071433;28;20045;-78
2021/12/16 03:50:54;;;;;;;3.58;2.55;;;3.40;99.90;;;;;;5053931;28;20041;-78
2021/12/16 03:53:22;;;;;;;6.15;2.70;;;3.40;99.90;;;;;;5042587;28;20041;-78
2021/12/16 03:55:51;;;;;;;9.82;2.70;;;3.40;99.90;;;;;;5069339;28;20053;-79
2021/12/16 03:58:20;;;;;;;6.63;2.85;;;3.50;99.90;;;;;;5083516;28;20044;-79
2021/12/16 04:01:04;;;;;;;6.60;2.72;;;3.50;99.90;;;;;;5068205;28;20514;-78
2021/12/16 04:03:33;;;;;;;3.05;2.60;;;3.50;99.90;;;;;;5051554;28;20056;-78
2021/12/16 04:06:01;;;;;;;6.97;3.58;;;3.50;99.90;;;;;;5052426;28;20128;-78
2021/12/16 04:08:30;;;;;;;11.27;2.63;;;3.50;99.90;;;;;;5067107;28;20056;-84
2021/12/16 04:11:05;;;;;;;6.32;3.00;;;3.60;99.90;;;;;;5054086;28;20056;-79
2021/12/16 04:13:55;;;;;;;3.83;2.38;;;3.60;99.90;;;;;;5060803;28;20051;-83
2021/12/16 04:16:37;;;;;;;4.80;2.70;;;3.60;99.90;;;;;;5067501;28;20129;-82
2021/12/16 04:19:09;;;;;;;5.07;2.33;;;3.60;99.90;;;;;;5061325;28;20407;-82
2021/12/16 04:21:39;;;;;;;10.68;2.55;;;3.60;99.90;;;;;;5054408;28;20483;-81
2021/12/16 04:24:09;;;;;;;6.32;3.17;;;3.70;99.90;;;;;;5034074;28;20148;-81
2021/12/16 04:26:39;;;;;;;6.15;3.10;;;3.70;99.90;;;;;;5056306;28;20141;-82
2021/12/16 04:29:09;;;;;;;5.65;2.90;;;3.70;99.90;;;;;;5071959;28;20099;-83
2021/12/16 04:31:40;;;;;;;9.48;3.20;;;3.70;99.90;;;;;;5041216;28;20049;-81
2021/12/16 04:34:09;;;;;;;6.20;2.90;;;3.60;99.90;;;;;;5058904;28;20076;-85
2021/12/16 04:36:39;;;;;;;4.00;2.65;;;3.60;99.90;;;;;;5051491;28;20045;-86
2021/12/16 04:39:12;;;;;;;4.88;2.78;;;3.60;99.90;;;;;;5054284;28;20143;-87
2021/12/16 04:41:42;;;;;;;10.38;3.15;;;3.60;99.90;;;;;;5059982;28;20118;-86
2021/12/16 04:44:13;;;;;;;6.88;3.28;;;3.60;99.90;;;;;;5071835;28;20420;-83
2021/12/16 04:46:46;;;;;;;11.00;4.03;;;3.70;99.90;;;;;;5070452;28;20484;-84
2021/12/16 04:49:24;;;;;;;8.02;3.25;;;3.70;99.90;;;;;;5054455;28;20098;-85
2021/12/16 04:51:59;;;;;;;6.35;3.60;;;3.70;99.90;;;;;;5071894;28;20460;-84
2021/12/16 04:54:30;;;;;;;8.23;3.50;;;3.70;99.90;;;;;;5069571;28;20053;-83
2021/12/16 04:57:00;;;;;;;4.90;3.17;;;3.70;99.90;;;;;;5071095;28;20135;-84
2021/12/16 04:59:30;;;;;;;5.47;3.20;;;3.80;99.90;;;;;;5070844;28;20520;-78
2021/12/16 05:02:05;;;;;;;4.85;2.97;;;3.80;99.90;;;;;;5075567;28;20049;-81
2021/12/16 05:04:52;;;;;;;6.43;2.83;;;3.80;99.90;;;;;;5064822;28;20044;-82
2021/12/16 05:07:22;;;;;;;5.07;3.00;;;3.80;99.90;;;;;;5054887;28;20135;-84
2021/12/16 05:10:14;;;;;;;8.20;3.35;;;3.80;99.90;;;;;;5050041;28;20137;-83
2021/12/16 05:12:50;;;;;;;8.60;3.20;;;3.80;99.90;;;;;;5080738;28;20057;-84
2021/12/16 05:15:23;;;;;;;10.73;3.28;;;3.80;99.90;;;;;;5056064;28;20053;-84
2021/12/16 05:17:54;;;;;;;9.13;3.78;;;3.80;99.90;;;;;;5048168;28;20076;-84
2021/12/16 05:20:26;;;;;;;8.75;2.97;;;3.80;99.90;;;;;;5056053;28;20590;-83
2021/12/16 05:25:56;;;;;;;11.50;3.00;;;3.80;99.90;;;;;;5064123;28;20500;-80
2021/12/16 05:28:26;;;;;;;7.22;2.92;;;3.80;99.90;;;;;;5050444;28;20052;-82
2021/12/16 05:30:54;;;;;;;7.57;2.88;;;3.80;99.90;;;;;;5047776;28;20036;-83
2021/12/16 05:33:27;;;;;;;10.05;3.78;;;3.80;99.90;;;;;;5053082;28;20045;-83
2021/12/16 05:35:56;;;;;;;6.28;3.15;;;3.90;99.90;;;;;;5058319;28;20464;-83
2021/12/16 05:38:26;;;;;;;8.27;3.22;;;3.80;99.90;;;;;;5063538;28;20136;-81
2021/12/16 05:40:57;;;;;;;6.63;3.63;;;3.80;99.90;;;;;;5046479;28;20057;-83
2021/12/16 05:43:31;;;;;;;6.13;3.45;;;3.90;99.90;;;;;;5028762;28;20114;-83
2021/12/16 05:46:01;;;;;;;8.82;3.60;;;3.90;99.90;;;;;;5045274;28;20346;-84
2021/12/16 05:48:33;;;;;;;5.03;2.42;;;3.80;99.90;;;;;;5047571;28;20071;-82
2021/12/16 05:51:07;;;;;;;10.82;3.72;;;3.80;99.90;;;;;;5050399;28;20547;-81
2021/12/16 05:53:36;;;;;;;6.45;3.00;;;3.90;99.90;;;;;;5077711;28;20066;-84
2021/12/16 05:56:14;;;;;;;11.70;3.95;;;3.90;99.90;;;;;;5048541;28;20041;-82
2021/12/16 05:58:44;;;;;;;13.13;3.72;;;3.90;99.90;;;;;;5036993;28;20436;-80
2021/12/16 06:01:18;;;;;;;8.75;3.88;;;3.90;99.90;;;;;;5058733;28;20097;-79
2021/12/16 06:03:48;;;;;;;7.60;3.03;;;3.90;99.90;;;;;;5075170;28;20049;-79
2021/12/16 06:06:16;;;;;;;7.80;4.28;;;3.90;99.90;;;;;;5040068;28;20060;-79
2021/12/16 06:08:46;;;;;;;4.15;3.10;;;3.80;99.90;;;;;;5053321;28;20040;-81
2021/12/16 06:11:19;;;;;;;8.48;3.00;;;3.80;99.90;;;;;;5056614;28;20436;-81
2021/12/16 06:13:59;;;;;;;;;;;3.80;99.90;;;;;;5059039;28;20119;-82
2021/12/16 06:27:50;;;;;;;9.00;4.80;;;3.90;99.90;;;;;;4977225;28;20072;-82
2021/12/16 06:30:22;;;;;;;7.53;4.10;;;3.80;99.90;;;;;;4995130;28;20043;-81
2021/12/16 06:32:50;;;;;;;11.82;5.05;;;3.80;99.90;;;;;;5026365;28;20045;-80
2021/12/16 06:35:22;;;;;;;13.90;4.95;;;3.80;99.90;;;;;;5057722;28;20048;-81
2021/12/16 06:37:52;;;;;;;9.18;4.38;;;3.80;99.90;;;;;;5074984;28;20045;-82
2021/12/16 06:40:29;;;;;;;7.22;4.43;;;3.80;99.90;;;;;;5073293;28;20041;-79
2021/12/16 06:43:25;;;;;;;9.30;4.28;;;3.80;99.90;;;;;;5054523;28;20519;-80
2021/12/16 06:45:56;;;;;;;8.13;4.68;;;3.80;99.90;;;;;;5045519;28;20053;-80
2021/12/16 06:48:28;;;;;;;9.80;5.28;;;3.80;99.90;;;;;;5051749;28;20049;-81
2021/12/16 06:51:05;;;;;;;10.13;5.17;;;3.80;99.90;;;;;;5049913;28;20045;-82
2021/12/16 06:53:44;;;;;;;13.43;5.78;;;3.80;99.90;;;;;;5048625;28;20311;-82
2021/12/16 06:56:18;;;;;;;11.65;5.95;;;3.80;99.90;;;;;;5048726;28;20053;-82
2021/12/16 06:58:49;;;;;;;15.77;7.28;;;3.80;99.90;;;;;;5057173;28;20052;-81
2021/12/16 07:01:31;;;;;;;12.02;8.60;;;3.80;99.90;;;;;;5044491;28;20048;-82
2021/12/16 07:04:00;;;;;;;18.02;9.05;;;3.80;99.90;;;;;;5063434;28;20710;-84
2021/12/16 07:06:32;;;;;;;15.55;8.60;;;3.70;99.90;;;;;;5050579;28;20139;-83
2021/12/16 07:09:08;;;;;;;16.07;7.87;;;3.70;99.90;;;;;;5069461;28;20143;-84
2021/12/16 07:11:40;;;;;;;16.92;8.35;;;3.70;99.90;;;;;;5062220;28;20284;-82
2021/12/16 07:14:13;;;;;;;18.50;7.88;;;3.70;99.90;;;;;;5056747;28;20041;-84
2021/12/16 07:16:42;;;;;;;17.23;9.13;;;3.70;99.90;;;;;;5055318;28;20041;-82
2021/12/16 07:19:10;;;;;;;20.95;8.60;;;3.70;99.90;;;;;;5066823;28;20132;-82
2021/12/16 07:21:40;;;;;;;21.48;8.45;;;3.70;99.90;;;;;;5054541;28;20056;-83
2021/12/16 07:24:11;;;;;;;19.02;8.82;;;3.80;99.90;;;;;;5054086;28;20058;-81
2021/12/16 07:26:40;;;;;;;17.17;9.88;;;3.70;99.90;;;;;;5066628;28;20044;-81
2021/12/16 07:29:09;;;;;;;25.92;10.38;;;3.70;99.90;;;;;;5071668;28;20561;-81
2021/12/16 07:31:38;;;;;;;25.98;9.77;;;3.80;99.90;;;;;;5063857;28;20059;-82
2021/12/16 07:34:08;;;;;;;22.02;9.75;;;3.80;99.90;;;;;;5062722;28;20053;-82
2021/12/16 07:36:45;;;;;;;17.77;10.02;;;3.90;99.90;;;;;;5061071;28;20056;-82
2021/12/16 07:39:20;;;;;;;28.05;10.15;;;3.90;99.90;;;;;;5066368;28;20131;-81
2021/12/16 07:41:49;;;;;;;24.08;12.40;;;3.90;99.90;;;;;;5072361;28;20063;-83
2021/12/16 07:44:18;;;;;;;26.40;11.93;;;3.90;99.90;;;;;;5059808;28;20102;-82
2021/12/16 07:46:50;;;;;;;29.13;11.68;;;3.90;99.90;;;;;;5058374;28;20487;-83
2021/12/16 07:49:25;;;;;;;28.37;10.90;;;4.00;99.90;;;;;;5058573;28;20235;-83
2021/12/16 07:51:56;;;;;;;22.27;9.98;;;4.00;99.90;;;;;;5085535;28;20275;-80
2021/12/16 07:54:24;;;;;;;30.48;11.07;;;4.00;99.90;;;;;;5054878;28;20072;-82
2021/12/16 07:56:55;;;;;;;32.40;10.20;;;4.00;99.90;;;;;;5054176;28;20051;-81
2021/12/16 07:59:24;;;;;;;25.25;11.32;;;4.10;99.90;;;;;;5053747;28;20045;-83
2021/12/16 08:01:52;;;;;;;24.60;9.75;;;4.10;99.90;;;;;;5069235;28;20092;-82
2021/12/16 08:04:22;;;;;;;25.30;10.13;;;4.10;99.90;;;;;;5065355;28;20118;-79
2021/12/16 08:06:54;;;;;;;21.40;9.43;;;4.10;99.90;;;;;;5055452;28;20036;-82
2021/12/16 08:09:23;;;;;;;21.60;8.80;;;4.10;99.90;;;;;;5053647;28;20496;-81
2021/12/16 08:11:52;;;;;;;20.13;8.75;;;4.20;99.90;;;;;;5062633;28;20037;-81
2021/12/16 08:14:20;;;;;;;22.77;9.07;;;4.20;99.90;;;;;;5053002;28;20053;-80
2021/12/16 08:16:56;;;;;;;18.25;8.00;;;4.20;99.90;;;;;;5056592;28;20398;-80
2021/12/16 08:19:25;;;;;;;17.13;8.23;;;4.20;99.90;;;;;;5052260;28;20057;-79
2021/12/16 08:21:54;;;;;;;18.15;8.90;;;4.20;99.90;;;;;;5053129;28;20059;-79
2021/12/16 08:24:22;;;;;;;22.02;7.35;;;4.30;99.90;;;;;;5059082;28;20144;-81
2021/12/16 08:26:52;;;;;;;17.23;6.80;;;4.30;99.90;;;;;;5063815;28;20475;-80
2021/12/16 08:29:20;;;;;;;12.13;6.20;;;4.40;99.90;;;;;;5050433;28;20053;-79
2021/12/16 08:31:48;;;;;;;17.65;6.82;;;4.40;99.90;;;;;;5052135;28;20048;-79
2021/12/16 08:34:17;;;;;;;16.02;7.40;;;4.50;99.90;;;;;;5044834;28;20053;-80
2021/12/16 08:36:46;;;;;;;16.63;7.47;;;4.50;99.90;;;;;;5050876;28;20457;-81
2021/12/16 08:39:19;;;;;;;18.38;7.28;;;4.60;99.90;;;;;;5066395;28;20424;-81
2021/12/16 08:41:50;;;;;;;21.83;7.95;;;4.40;99.90;;;;;;5055896;28;20512;-81
2021/12/16 08:44:19;;;;;;;15.88;6.60;;;4.60;99.90;;;;;;5057724;28;20056;-81
2021/12/16 08:46:51;;;;;;;11.77;6.82;;;4.70;99.90;;;;;;5070077;28;20127;-81
2021/12/16 08:49:19;;;;;;;17.70;5.75;;;4.60;99.90;;;;;;5017820;28;20520;-82
2021/12/16 08:51:54;;;;;;;12.15;5.18;;;4.70;99.90;;;;;;5024300;28;20063;-81
2021/12/16 08:54:24;;;;;;;13.10;6.43;;;4.70;99.90;;;;;;5032214;28;20409;-81
2021/12/16 08:56:53;;;;;;;14.55;6.63;;;4.70;99.90;;;;;;5023642;28;20101;-82
2021/12/16 08:59:21;;;;;;;12.60;5.35;;;5.70;99.90;;;;;;5023434;28;20425;-82
2021/12/16 09:01:54;;;;;;;8.35;4.72;;;4.70;99.90;;;;;;5030795;28;20415;-84
2021/12/16 09:04:23;;;;;;;8.48;4.60;;;4.80;99.90;;;;;;5015648;28;20050;-84
2021/12/16 09:06:56;;;;;;;7.80;4.18;;;5.40;99.90;;;;;;5023208;28;20060;-84
2021/12/16 09:09:31;;;;;;;6.28;4.95;;;4.80;99.90;;;;;;5023211;28;20061;-82
2021/12/16 09:12:10;;;;;;;12.38;5.15;;;4.80;99.90;;;;;;5016480;28;20050;-84
2021/12/16 09:14:40;;;;;;;10.80;5.03;;;4.80;99.90;;;;;;5010754;28;20046;-81
2021/12/16 09:17:12;;;;;;;8.15;4.40;;;4.70;99.90;;;;;;5012215;28;20057;-81
2021/12/16 09:19:41;;;;;;;7.43;3.70;;;4.70;99.90;;;;;;5022232;28;20053;-81
2021/12/16 09:22:10;;;;;;;6.97;3.97;;;4.70;99.90;;;;;;5038973;28;20104;-80
2021/12/16 09:24:39;;;;;;;7.57;4.40;;;4.60;99.90;;;;;;5023463;28;20153;-81
2021/12/16 09:27:08;;;;;;;7.20;3.78;;;4.60;99.90;;;;;;5026897;28;20082;-81
2021/12/16 09:29:35;;;;;;;9.63;4.15;;;4.50;99.90;;;;;;5010362;28;20548;-82
2021/12/16 09:32:04;;;;;;;10.32;5.50;;;4.40;99.90;;;;;;5028564;28;20053;-82
2021/12/16 09:34:33;;;;;;;12.55;5.38;;;4.40;99.90;;;;;;5026245;28;20123;-82
2021/12/16 09:37:00;;;;;;;12.25;5.72;;;4.50;99.90;;;;;;5028857;28;20485;-82
2021/12/16 09:39:28;;;;;;;8.52;5.30;;;4.40;99.90;;;;;;5014861;28;20042;-81
2021/12/16 09:41:58;;;;;;;13.75;6.45;;;4.40;99.90;;;;;;5016299;28;20136;-81
2021/12/16 09:44:28;;;;;;;7.55;4.93;;;4.40;99.90;;;;;;5022506;28;20471;-81
2021/12/16 09:47:00;;;;;;;10.18;5.60;;;4.40;99.90;;;;;;5020392;28;20536;-81
2021/12/16 09:49:27;;;;;;;10.30;5.57;;;4.50;99.90;;;;;;5018746;28;20061;-81
2021/12/16 09:51:59;;;;;;;11.43;5.50;;;4.40;99.90;;;;;;5027747;28;20131;-82
2021/12/16 09:54:31;;;;;;;11.45;6.63;;;4.50;99.90;;;;;;5027354;28;20057;-79
2021/12/16 09:57:00;;;;;;;10.55;5.60;;;4.50;99.90;;;;;;5011829;28;20054;-80
2021/12/16 09:59:31;;;;;;;16.73;6.30;;;4.40;99.90;;;;;;5014973;28;20038;-79
2021/12/16 10:02:09;;;;;;;12.23;5.47;;;4.50;99.90;;;;;;5025401;28;20172;-83
2021/12/16 10:04:38;;;;;;;14.00;6.13;;;4.50;99.90;;;;;;5011331;28;20602;-81
2021/12/16 10:07:13;;;;;;;9.45;5.97;;;4.50;99.90;;;;;;5018471;28;20053;-81
2021/12/16 10:09:43;;;;;;;15.38;6.10;;;4.50;99.90;;;;;;5030867;28;20394;-80
2021/12/16 10:12:19;;;;;;;13.00;6.05;;;4.50;99.90;;;;;;5030746;28;20049;-80
2021/12/16 10:17:45;;;;;;;14.88;7.22;;;4.60;99.90;;;;;;5022359;28;20077;-80
2021/12/16 10:20:18;;;;;;;21.45;7.53;;;4.50;99.90;;;;;;5013114;28;20569;-79
2021/12/16 10:22:47;;;;;;;14.75;8.00;;;4.50;99.90;;;;;;5010736;28;20053;-80
2021/12/16 10:25:28;;;;;;;24.15;9.75;;;4.60;99.90;;;;;;5023991;28;20449;-80
2021/12/16 10:28:09;;;;;;;24.50;10.57;;;4.50;99.90;;;;;;5017849;28;20061;-80
2021/12/16 10:30:50;;;;;;;24.60;11.02;;;4.50;99.90;;;;;;5016412;28;20048;-80
2021/12/16 10:33:30;;;;;;;24.27;12.32;;;4.50;99.90;;;;;;5008043;28;20053;-81
2021/12/16 10:36:12;;;;;;;29.08;11.98;;;4.40;99.90;;;;;;5030540;28;20139;-81
2021/12/16 10:38:44;;;;;;;39.15;12.45;;;4.40;99.90;;;;;;5030842;28;20061;-80
2021/12/16 10:41:16;;;;;;;25.40;11.60;;;4.40;99.90;;;;;;5022155;28;20088;-81
2021/12/16 10:43:49;;;;;;;22.98;10.45;;;5.10;99.90;;;;;;5010884;28;20049;-81
2021/12/16 10:46:21;;;;;;;22.40;10.07;;;5.30;99.90;;;;;;4998248;28;20140;-81
2021/12/16 10:48:52;;;;;;;22.98;10.93;;;4.50;99.90;;;;;;5033899;28;20631;-80
2021/12/16 10:51:29;;;;;;;19.30;9.45;;;4.60;99.90;;;;;;5027524;28;20053;-80
2021/12/16 10:54:20;;;;;;;14.73;7.95;;;4.60;99.90;;;;;;5022300;28;20050;-81
2021/12/16 10:56:57;;;;;;;19.10;9.73;;;4.70;99.90;;;;;;5017276;28;20061;-82
2021/12/16 10:59:32;;;;;;;15.32;8.25;;;4.60;99.90;;;;;;5014540;28;20513;-82
2021/12/16 11:02:08;;;;;;;16.52;8.60;;;4.60;99.90;;;;;;5014666;28;20054;-83
2021/12/16 11:04:42;;;;;;;17.17;9.55;;;4.60;99.90;;;;;;5014660;28;20061;-81
2021/12/16 11:07:17;;;;;;;18.27;7.60;;;4.60;99.90;;;;;;5025252;28;20139;-81
2021/12/16 11:10:03;;;;;;;14.05;6.78;;;4.50;99.90;;;;;;5022459;28;20046;-83
2021/12/16 11:12:50;;;;;;;9.32;5.88;;;4.70;99.90;;;;;;5044580;28;20164;-84
2021/12/16 11:15:29;;;;;;;11.38;6.47;;;4.80;99.90;;;;;;5033761;28;20060;-83
2021/12/16 11:18:06;;;;;;;8.23;5.95;;;4.70;99.90;;;;;;5024741;28;20090;-83
2021/12/16 11:20:40;;;;;;;8.30;5.50;;;4.70;99.90;;;;;;5021421;28;20054;-84
2021/12/16 11:23:14;;;;;;;10.82;5.53;;;4.60;99.90;;;;;;5020755;28;20054;-83
2021/12/16 11:25:44;;;;;;;11.95;6.22;;;4.70;99.90;;;;;;5031770;28;20049;-82
2021/12/16 11:28:18;;;;;;;9.60;5.43;;;4.70;99.90;;;;;;5033882;28;20414;-84
2021/12/16 11:32:46;;;;;;;11.05;6.45;;;4.60;99.90;;;;;;5092120;27;1470723;-85
